Time;durP1;ratioP1;P1;durP2;ratioP2;P2;SDS_P1;SDS_P2;PMS_P1;PMS_P2;Temp;Humidity;BMP_temperature;BMP_pressure;BME280_temperature;BME280_humidity;BME280_pressure;Samples;Min_cycle;Max_cycle;Signal;HPM_P1;HPM_P2
2022/01/19 00:00:17;;;;;;;7.70;4.10;;;18.10;55.40;;;;;;5052846;28;20178;-62
2022/01/19 00:02:43;;;;;;;5.40;3.90;;;18.10;55.40;;;;;;5052493;28;20638;-60
2022/01/19 00:05:09;;;;;;;3.63;3.30;;;18.00;55.30;;;;;;5051961;28;20657;-60
2022/01/19 00:07:35;;;;;;;5.63;4.22;;;18.00;55.30;;;;;;5052276;28;20222;-61
2022/01/19 00:10:04;;;;;;;4.00;3.17;;;18.00;55.30;;;;;;5052508;28;20187;-60
2022/01/19 00:12:32;;;;;;;6.47;3.92;;;18.00;55.40;;;;;;5051426;28;20309;-63
2022/01/19 00:14:58;;;;;;;4.82;3.90;;;18.00;55.30;;;;;;5052101;28;20649;-63
2022/01/19 00:17:23;;;;;;;5.78;3.83;;;17.90;55.30;;;;;;5051856;28;20274;-62
2022/01/19 00:19:49;;;;;;;4.75;3.97;;;17.90;55.30;;;;;;5051645;28;20174;-62
2022/01/19 00:22:14;;;;;;;5.47;3.70;;;17.90;55.40;;;;;;5052195;28;20179;-61
2022/01/19 00:24:41;;;;;;;4.82;3.13;;;17.90;55.40;;;;;;5052003;28;20179;-61
2022/01/19 00:27:06;;;;;;;4.22;3.42;;;17.90;55.40;;;;;;5051600;28;20184;-61
2022/01/19 00:29:32;;;;;;;4.28;3.88;;;17.90;55.40;;;;;;5051954;28;20175;-62
2022/01/19 00:31:57;;;;;;;4.50;3.17;;;17.90;55.40;;;;;;5050869;28;20223;-62
2022/01/19 00:34:23;;;;;;;5.13;3.55;;;17.90;56.00;;;;;;5050991;28;20265;-62
2022/01/19 00:36:48;;;;;;;4.95;3.80;;;17.80;55.40;;;;;;5051961;28;20351;-61
2022/01/19 00:39:14;;;;;;;5.32;3.65;;;17.80;55.40;;;;;;5051544;28;20281;-60
2022/01/19 00:41:39;;;;;;;5.47;3.65;;;17.80;55.40;;;;;;5051452;28;20238;-61
2022/01/19 00:44:05;;;;;;;5.50;3.42;;;17.80;55.40;;;;;;5051899;28;20605;-61
2022/01/19 00:46:30;;;;;;;4.40;3.65;;;17.80;55.40;;;;;;5050846;28;20183;-61
2022/01/19 00:48:56;;;;;;;4.45;3.53;;;17.80;55.40;;;;;;5051847;28;20175;-60
2022/01/19 00:51:21;;;;;;;4.05;3.55;;;17.80;55.40;;;;;;5051500;28;20240;-61
2022/01/19 00:53:47;;;;;;;4.88;4.35;;;17.80;55.30;;;;;;5051624;28;20187;-62
2022/01/19 00:56:12;;;;;;;4.18;3.30;;;17.80;55.40;;;;;;5051729;28;20218;-62
2022/01/19 00:58:38;;;;;;;3.88;3.13;;;17.80;55.40;;;;;;5051450;28;20619;-61
2022/01/19 01:01:03;;;;;;;3.80;3.03;;;17.70;55.30;;;;;;5050386;28;20171;-61
2022/01/19 01:03:29;;;;;;;6.20;4.00;;;17.70;55.30;;;;;;5051360;28;20266;-61
2022/01/19 01:05:54;;;;;;;4.70;3.58;;;17.70;55.30;;;;;;5051497;28;20183;-60
2022/01/19 01:08:20;;;;;;;4.85;3.08;;;17.70;55.30;;;;;;5050798;28;20167;-61
2022/01/19 01:10:46;;;;;;;5.20;3.72;;;17.70;55.40;;;;;;5051453;28;20234;-62
2022/01/19 01:15:24;;;;;;;4.97;3.30;;;17.70;55.30;;;;;;5051610;28;20586;-62
2022/01/19 01:16:18;;;;;;;4.72;3.50;;;17.70;55.30;;;;;;5050628;28;20222;-62
2022/01/19 01:18:43;;;;;;;4.53;3.38;;;17.60;55.30;;;;;;5051596;28;20179;-61
2022/01/19 01:21:09;;;;;;;5.35;3.38;;;17.60;55.30;;;;;;5051456;28;20189;-61
2022/01/19 01:23:35;;;;;;;4.50;3.17;;;17.60;55.30;;;;;;5050570;28;20233;-62
2022/01/19 01:26:02;;;;;;;4.15;3.13;;;17.60;55.30;;;;;;5051312;28;20521;-61
2022/01/19 01:28:27;;;;;;;4.18;3.67;;;17.60;55.30;;;;;;5050793;28;20254;-62
2022/01/19 01:30:53;;;;;;;4.63;3.15;;;17.60;55.30;;;;;;5050987;28;20214;-60
2022/01/19 01:33:18;;;;;;;4.53;3.90;;;17.60;55.30;;;;;;5051309;28;20175;-60
2022/01/19 01:35:44;;;;;;;4.35;2.78;;;17.60;55.30;;;;;;5050775;28;20214;-61
2022/01/19 01:38:09;;;;;;;5.72;3.22;;;17.60;55.30;;;;;;5051395;28;20171;-61
2022/01/19 01:40:35;;;;;;;4.07;3.40;;;17.60;55.20;;;;;;5050873;28;20175;-62
2022/01/19 01:43:03;;;;;;;4.97;3.50;;;17.60;55.30;;;;;;5050613;28;20237;-61
2022/01/19 01:45:31;;;;;;;4.35;3.95;;;17.50;55.20;;;;;;5050697;28;20513;-61
2022/01/19 01:48:11;;;;;;;6.88;3.80;;;17.50;55.20;;;;;;5051368;28;20175;-61
2022/01/19 01:53:26;;;;;;;3.75;3.38;;;17.50;55.20;;;;;;5050774;28;20661;-62
2022/01/19 01:55:55;;;;;;;6.18;4.18;;;17.50;55.20;;;;;;5051050;28;20215;-62
2022/01/19 01:58:21;;;;;;;5.47;3.63;;;17.50;55.20;;;;;;5050336;28;20233;-63
2022/01/19 02:00:46;;;;;;;4.25;3.67;;;17.50;55.20;;;;;;5051146;28;20175;-61
2022/01/19 02:03:12;;;;;;;5.53;4.13;;;17.50;55.20;;;;;;5051050;28;20176;-61
2022/01/19 02:05:47;;;;;;;4.15;3.65;;;17.50;55.20;;;;;;5049999;28;20488;-61
2022/01/19 02:08:20;;;;;;;4.40;3.65;;;17.40;55.10;;;;;;5049989;28;20179;-61
2022/01/19 02:11:31;;;;;;;3.95;3.55;;;17.40;55.10;;;;;;5049388;28;20175;-62
2022/01/19 02:16:48;;;;;;;5.00;3.75;;;17.40;55.10;;;;;;5054492;28;20213;-63
2022/01/19 02:22:00;;;;;;;5.45;3.78;;;17.40;55.10;;;;;;5054834;28;20264;-61
2022/01/19 02:24:31;;;;;;;3.92;3.42;;;17.40;55.10;;;;;;5054294;28;20179;-62
2022/01/19 02:27:12;;;;;;;4.72;4.20;;;17.40;55.10;;;;;;5054141;28;20190;-62
2022/01/19 02:40:57;;;;;;;4.25;3.50;;;17.30;55.00;;;;;;5053838;28;20294;-61
2022/01/19 02:43:25;;;;;;;3.95;3.05;;;17.30;55.00;;;;;;5054150;28;20183;-61
2022/01/19 02:51:19;;;;;;;4.97;3.35;;;17.30;55.00;;;;;;5054417;28;20194;-62
2022/01/19 02:53:44;;;;;;;3.85;3.25;;;17.30;55.00;;;;;;5053713;28;20168;-62
2022/01/19 02:56:16;;;;;;;3.65;3.35;;;17.20;54.90;;;;;;5054190;28;20242;-63
2022/01/19 02:58:52;;;;;;;4.32;3.30;;;17.30;55.00;;;;;;5054141;28;20179;-62
2022/01/19 03:09:26;;;;;;;3.38;3.08;;;17.20;54.90;;;;;;5053821;28;20316;-62
2022/01/19 03:11:51;;;;;;;3.83;3.53;;;17.20;54.90;;;;;;5054145;28;20588;-63
2022/01/19 03:14:17;;;;;;;3.58;3.28;;;17.20;54.90;;;;;;5053248;28;20171;-63
2022/01/19 03:16:44;;;;;;;3.47;3.17;;;17.20;54.90;;;;;;5053700;28;20700;-63
2022/01/19 03:19:10;;;;;;;4.70;3.97;;;17.20;54.90;;;;;;5054127;28;20262;-62
2022/01/19 03:21:36;;;;;;;4.82;3.33;;;17.20;54.90;;;;;;5053140;28;20183;-62
2022/01/19 03:24:02;;;;;;;3.40;3.10;;;17.20;54.90;;;;;;5053463;28;20174;-62
2022/01/19 03:26:28;;;;;;;4.60;4.00;;;17.20;54.90;;;;;;5053888;28;20285;-62
2022/01/19 03:28:53;;;;;;;4.18;3.72;;;17.10;54.80;;;;;;5053322;28;20274;-61
2022/01/19 03:31:19;;;;;;;3.85;3.20;;;17.10;54.80;;;;;;5053514;28;20176;-61
2022/01/19 03:33:45;;;;;;;3.42;3.05;;;17.10;54.90;;;;;;5053804;28;20171;-61
2022/01/19 03:36:10;;;;;;;4.57;3.65;;;17.10;54.80;;;;;;5053336;28;20218;-61
2022/01/19 03:38:36;;;;;;;4.63;3.35;;;17.10;54.80;;;;;;5053665;28;20168;-61
2022/01/19 03:41:01;;;;;;;3.97;2.85;;;17.10;54.80;;;;;;5053694;28;20183;-62
2022/01/19 03:43:27;;;;;;;4.22;3.75;;;17.10;54.80;;;;;;5052945;28;20562;-61
2022/01/19 03:45:54;;;;;;;4.28;3.25;;;17.10;54.80;;;;;;5053594;28;20191;-61
2022/01/19 03:48:35;;;;;;;4.10;3.70;;;17.10;54.90;;;;;;5053095;28;20183;-61
2022/01/19 03:51:01;;;;;;;3.47;3.17;;;17.10;54.80;;;;;;5052636;28;20229;-61
2022/01/19 03:53:27;;;;;;;3.50;3.20;;;17.00;54.70;;;;;;5053012;28;20179;-62
2022/01/19 03:55:52;;;;;;;4.00;3.60;;;17.00;54.80;;;;;;5053364;28;20207;-62
2022/01/19 03:58:18;;;;;;;4.97;3.20;;;17.00;54.70;;;;;;5052316;28;20517;-62
2022/01/19 04:00:45;;;;;;;3.42;3.13;;;17.00;54.70;;;;;;5052859;28;20175;-61
2022/01/19 04:03:13;;;;;;;3.38;3.08;;;17.00;54.70;;;;;;5052828;28;20660;-61
2022/01/19 04:08:17;;;;;;;4.65;3.53;;;17.00;54.70;;;;;;5053574;28;20175;-61
2022/01/19 04:10:42;;;;;;;4.55;3.50;;;17.00;54.70;;;;;;5052131;28;20195;-62
2022/01/19 04:13:11;;;;;;;3.47;3.17;;;17.00;54.70;;;;;;5053173;28;20178;-63
2022/01/19 04:15:37;;;;;;;4.70;3.70;;;17.00;54.70;;;;;;5052661;28;20199;-63
2022/01/19 04:18:03;;;;;;;4.30;3.90;;;16.90;54.80;;;;;;5052534;28;20175;-62
2022/01/19 04:20:29;;;;;;;5.07;3.67;;;16.90;54.70;;;;;;5052695;28;20528;-63
2022/01/19 04:22:54;;;;;;;4.68;3.40;;;16.90;54.60;;;;;;5052842;28;20178;-61
2022/01/19 04:25:20;;;;;;;4.00;3.70;;;16.90;54.60;;;;;;5051908;28;20179;-62
2022/01/19 04:27:48;;;;;;;4.03;3.63;;;16.90;54.60;;;;;;5052827;28;20186;-62
2022/01/19 04:30:17;;;;;;;3.55;2.92;;;16.90;54.60;;;;;;5052558;28;20171;-61
2022/01/19 04:35:23;;;;;;;3.60;3.30;;;16.90;54.60;;;;;;5052551;28;20565;-61
2022/01/19 04:46:07;;;;;;;3.70;3.40;;;16.80;54.40;;;;;;5051559;28;20204;-61
2022/01/19 05:07:22;;;;;;;3.92;3.38;;;16.80;54.40;;;;;;5051274;28;20627;-61
2022/01/19 05:15:18;;;;;;;3.42;3.13;;;16.80;54.50;;;;;;5051190;28;20539;-63
2022/01/19 05:17:44;;;;;;;3.63;3.30;;;16.70;54.50;;;;;;5051863;28;20183;-63
2022/01/19 05:20:11;;;;;;;3.03;2.72;;;16.70;54.50;;;;;;5051984;28;20258;-60
2022/01/19 05:22:36;;;;;;;3.42;3.13;;;16.70;55.20;;;;;;5051237;28;20286;-63
2022/01/19 05:25:02;;;;;;;3.90;3.60;;;16.70;54.60;;;;;;5052270;28;20602;-61
2022/01/19 05:27:28;;;;;;;4.22;3.38;;;16.70;54.60;;;;;;5051559;28;20610;-61
2022/01/19 05:29:53;;;;;;;4.38;2.95;;;16.70;54.60;;;;;;5051228;28;20187;-61
2022/01/19 05:32:19;;;;;;;3.38;2.95;;;16.70;54.50;;;;;;5051615;28;20178;-61
2022/01/19 05:34:44;;;;;;;3.55;3.25;;;16.70;54.50;;;;;;5050794;28;20176;-60
2022/01/19 05:37:10;;;;;;;3.70;3.30;;;16.70;54.50;;;;;;5051864;28;20210;-60
2022/01/19 05:39:35;;;;;;;3.33;3.03;;;16.70;54.50;;;;;;5051647;28;20536;-60
2022/01/19 05:42:01;;;;;;;3.33;3.03;;;16.70;54.50;;;;;;5049986;28;20179;-61
2022/01/19 05:44:26;;;;;;;3.05;2.80;;;16.60;54.40;;;;;;5051535;28;20178;-60
2022/01/19 05:46:52;;;;;;;4.07;3.70;;;16.70;54.40;;;;;;5053935;28;20190;-61
2022/01/19 05:49:17;;;;;;;3.80;3.50;;;16.60;54.40;;;;;;5054730;28;20272;-61
2022/01/19 05:51:43;;;;;;;3.28;2.97;;;16.60;54.40;;;;;;5055400;28;20195;-61
2022/01/19 05:54:08;;;;;;;3.85;3.45;;;16.60;54.40;;;;;;5055534;28;20186;-61
2022/01/19 05:56:34;;;;;;;3.40;3.13;;;16.60;54.40;;;;;;5054633;28;20571;-62
2022/01/19 05:58:59;;;;;;;5.95;3.60;;;16.60;54.40;;;;;;5055425;28;20233;-60
2022/01/19 06:01:25;;;;;;;3.65;3.22;;;16.60;54.40;;;;;;5055178;28;20186;-60
2022/01/19 06:03:52;;;;;;;3.50;3.20;;;16.60;54.40;;;;;;5054622;28;20176;-59
2022/01/19 06:06:17;;;;;;;4.10;3.10;;;16.60;54.40;;;;;;5055703;28;20198;-59
2022/01/19 06:08:45;;;;;;;4.80;3.55;;;16.60;54.40;;;;;;5055224;28;20568;-59
2022/01/19 06:11:11;;;;;;;3.35;3.05;;;16.60;54.50;;;;;;5054717;28;20171;-60
2022/01/19 06:13:36;;;;;;;3.67;3.38;;;16.50;54.50;;;;;;5055110;28;20698;-62
2022/01/19 06:16:02;;;;;;;3.63;3.30;;;16.60;54.40;;;;;;5055226;28;20693;-62
2022/01/19 06:18:27;;;;;;;3.20;2.92;;;16.50;55.00;;;;;;5054106;28;20186;-62
2022/01/19 06:20:53;;;;;;;3.28;3.08;;;16.60;55.00;;;;;;5055285;28;20179;-61
2022/01/19 06:23:18;;;;;;;3.88;3.40;;;16.50;54.40;;;;;;5055006;28;20260;-61
2022/01/19 06:25:44;;;;;;;3.63;3.33;;;16.50;54.30;;;;;;5053931;28;20308;-61
2022/01/19 06:28:10;;;;;;;4.07;3.60;;;16.50;54.30;;;;;;5054805;28;20190;-60
2022/01/19 06:30:35;;;;;;;3.60;3.22;;;16.50;54.30;;;;;;5054485;28;20237;-62
2022/01/19 06:33:01;;;;;;;3.47;3.17;;;16.50;54.30;;;;;;5053876;28;20194;-60
2022/01/19 06:35:26;;;;;;;3.90;3.50;;;16.50;54.30;;;;;;5054581;28;20203;-60
2022/01/19 06:37:52;;;;;;;3.50;3.20;;;16.50;54.30;;;;;;5054854;28;20210;-60
2022/01/19 06:40:18;;;;;;;4.00;3.60;;;16.50;54.30;;;;;;5053924;28;20262;-60
2022/01/19 06:42:44;;;;;;;4.13;3.50;;;16.50;54.20;;;;;;5054267;28;20178;-61
2022/01/19 06:45:10;;;;;;;4.43;4.03;;;16.50;54.30;;;;;;5053727;28;20179;-60
2022/01/19 06:47:35;;;;;;;4.68;3.67;;;16.50;54.30;;;;;;5054015;28;20175;-61
2022/01/19 06:50:01;;;;;;;4.20;3.80;;;16.50;54.30;;;;;;5054325;28;20226;-61
2022/01/19 06:52:26;;;;;;;4.50;4.10;;;16.40;54.20;;;;;;5053410;28;20184;-62
2022/01/19 06:54:52;;;;;;;4.38;3.83;;;16.40;54.20;;;;;;5054649;28;20179;-61
2022/01/19 06:57:17;;;;;;;3.80;3.50;;;16.40;54.20;;;;;;5053608;28;20218;-61
2022/01/19 06:59:43;;;;;;;4.68;4.28;;;16.40;54.20;;;;;;5052801;28;20178;-60
2022/01/19 07:02:09;;;;;;;4.38;3.97;;;16.40;54.20;;;;;;5054095;28;20179;-60
2022/01/19 07:04:36;;;;;;;5.75;4.25;;;16.40;54.10;;;;;;5053834;28;20218;-60
2022/01/19 07:07:02;;;;;;;4.75;4.22;;;16.40;54.10;;;;;;5053517;28;20207;-59
2022/01/19 07:09:27;;;;;;;4.75;4.25;;;16.40;54.20;;;;;;5053807;28;20171;-60
2022/01/19 07:11:53;;;;;;;5.07;4.55;;;16.40;54.30;;;;;;5054209;28;20232;-61
2022/01/19 07:14:18;;;;;;;4.43;4.03;;;16.40;54.20;;;;;;5053221;28;20175;-62
2022/01/19 07:16:44;;;;;;;4.65;4.05;;;16.40;54.10;;;;;;5053760;28;20203;-61
2022/01/19 07:19:12;;;;;;;5.18;4.40;;;16.40;54.20;;;;;;5053950;28;20622;-61
2022/01/19 07:21:37;;;;;;;4.72;4.18;;;16.30;54.10;;;;;;5053020;28;20187;-60
2022/01/19 07:24:03;;;;;;;4.97;4.47;;;16.30;54.10;;;;;;5053849;28;20207;-63
2022/01/19 07:26:29;;;;;;;5.88;4.32;;;16.30;54.10;;;;;;5053275;28;20179;-61
2022/01/19 07:28:54;;;;;;;5.32;4.32;;;16.30;54.20;;;;;;5053102;28;20353;-61
2022/01/19 07:31:20;;;;;;;5.88;4.28;;;16.30;54.20;;;;;;5053275;28;20179;-60
2022/01/19 07:33:45;;;;;;;5.53;4.80;;;16.30;54.40;;;;;;5053830;28;20642;-60
2022/01/19 07:36:15;;;;;;;5.00;4.50;;;16.40;54.20;;;;;;5052827;28;20272;-60
2022/01/19 07:38:41;;;;;;;4.68;4.28;;;16.40;54.20;;;;;;5053583;28;20598;-60
2022/01/19 07:41:06;;;;;;;5.40;4.90;;;16.40;54.20;;;;;;5053632;28;20207;-60
2022/01/19 07:43:32;;;;;;;4.72;4.22;;;16.50;54.10;;;;;;5052343;28;20171;-60
2022/01/19 07:45:57;;;;;;;5.97;4.82;;;16.50;54.00;;;;;;5053309;28;20175;-60
2022/01/19 07:48:23;;;;;;;4.40;4.00;;;16.50;54.00;;;;;;5052328;28;20167;-61
2022/01/19 07:50:48;;;;;;;4.18;3.78;;;16.60;54.30;;;;;;5053264;28;20238;-61
2022/01/19 07:53:14;;;;;;;4.47;3.85;;;16.70;54.40;;;;;;5053118;28;20178;-61
2022/01/19 07:55:40;;;;;;;4.07;3.67;;;16.90;54.10;;;;;;5052146;28;20199;-61
2022/01/19 07:58:05;;;;;;;4.28;3.88;;;17.10;53.90;;;;;;5052842;28;20179;-61
2022/01/19 08:00:33;;;;;;;3.60;3.30;;;17.30;53.60;;;;;;5052754;28;20179;-61
2022/01/19 08:02:58;;;;;;;3.83;3.50;;;17.50;53.30;;;;;;5052190;28;20653;-60
2022/01/19 08:05:24;;;;;;;4.25;3.65;;;17.60;53.00;;;;;;5052583;28;20179;-63
2022/01/19 08:07:49;;;;;;;5.18;3.65;;;17.80;52.90;;;;;;5052850;28;20229;-63
2022/01/19 08:10:15;;;;;;;4.60;3.88;;;17.90;52.70;;;;;;5051525;28;20626;-63
2022/01/19 08:12:44;;;;;;;4.75;3.90;;;18.00;52.60;;;;;;5052106;28;20186;-60
2022/01/19 08:15:12;;;;;;;6.03;4.03;;;18.10;52.40;;;;;;5052303;28;20179;-61
2022/01/19 08:17:37;;;;;;;5.28;4.25;;;18.20;52.90;;;;;;5051196;28;20541;-61
2022/01/19 08:20:03;;;;;;;4.97;4.00;;;18.20;53.00;;;;;;5052488;28;20171;-68
2022/01/19 08:22:29;;;;;;;4.47;3.78;;;18.30;53.10;;;;;;5051576;28;20182;-67
2022/01/19 08:24:54;;;;;;;4.72;4.22;;;18.30;53.20;;;;;;5060288;28;20174;-67
2022/01/19 08:27:20;;;;;;;5.40;4.10;;;18.30;53.20;;;;;;5061154;28;20167;-67
2022/01/19 08:29:45;;;;;;;5.65;4.38;;;18.30;53.30;;;;;;5072166;28;20166;-68
2022/01/19 08:32:11;;;;;;;5.53;3.78;;;18.20;53.30;;;;;;5071485;28;20174;-69
2022/01/19 08:34:36;;;;;;;5.40;4.10;;;18.20;53.60;;;;;;5071929;28;20602;-67
2022/01/19 08:37:02;;;;;;;4.13;3.72;;;18.10;53.80;;;;;;5063221;28;20217;-67
2022/01/19 08:39:28;;;;;;;5.28;4.30;;;18.10;53.90;;;;;;5052707;28;20202;-66
2022/01/19 08:41:53;;;;;;;6.18;4.35;;;18.10;54.00;;;;;;5072092;28;20197;-67
2022/01/19 08:44:20;;;;;;;6.20;4.22;;;18.10;54.10;;;;;;5071514;28;20182;-66
2022/01/19 08:46:45;;;;;;;4.70;4.20;;;18.10;54.10;;;;;;5071421;28;20174;-65
2022/01/19 08:49:14;;;;;;;6.25;3.80;;;18.10;54.10;;;;;;5071591;28;20201;-65
2022/01/19 08:51:40;;;;;;;7.13;4.05;;;18.10;54.00;;;;;;5070957;28;20171;-62
2022/01/19 08:54:05;;;;;;;5.28;4.57;;;18.10;53.90;;;;;;5071665;28;20231;-62
2022/01/19 08:56:31;;;;;;;6.68;4.85;;;18.20;53.90;;;;;;5067646;28;20546;-61
2022/01/19 08:58:56;;;;;;;6.22;4.25;;;18.20;53.80;;;;;;5051110;28;21031;-62
2022/01/19 09:01:22;;;;;;;6.57;4.00;;;18.20;53.80;;;;;;5051526;28;20178;-62
2022/01/19 09:03:48;;;;;;;4.60;4.00;;;18.20;53.70;;;;;;5051700;28;20717;-63
2022/01/19 09:06:13;;;;;;;6.57;4.50;;;18.20;54.30;;;;;;5051183;28;20621;-62
2022/01/19 09:08:39;;;;;;;6.65;4.20;;;18.30;53.80;;;;;;5051314;28;20233;-65
2022/01/19 09:11:05;;;;;;;5.53;4.07;;;18.30;53.80;;;;;;5051624;28;20188;-62
2022/01/19 09:13:31;;;;;;;7.55;4.03;;;18.40;53.80;;;;;;5050743;28;20250;-62
2022/01/19 09:15:57;;;;;;;4.70;4.18;;;18.30;53.90;;;;;;5051666;28;20721;-63
2022/01/19 09:18:22;;;;;;;5.88;3.92;;;18.40;53.80;;;;;;5051287;28;20175;-62
2022/01/19 09:20:51;;;;;;;6.25;4.10;;;18.40;53.90;;;;;;5050165;28;20174;-63
2022/01/19 09:23:16;;;;;;;4.43;3.65;;;18.40;53.80;;;;;;5051525;28;20178;-62
2022/01/19 09:25:42;;;;;;;4.82;3.92;;;18.30;53.80;;;;;;5051048;28;20537;-66
2022/01/19 09:28:08;;;;;;;5.22;3.53;;;18.30;53.80;;;;;;5050687;28;20224;-64
2022/01/19 09:30:33;;;;;;;6.43;4.00;;;18.30;53.70;;;;;;5053780;28;21774;-64
2022/01/19 09:33:07;;;;;;;4.68;3.85;;;18.20;53.80;;;;;;5071634;28;20182;-67
2022/01/19 09:35:50;;;;;;;6.43;4.05;;;18.20;53.80;;;;;;5070693;28;20245;-65
2022/01/19 09:38:23;;;;;;;4.10;3.70;;;18.20;53.90;;;;;;5071293;28;20601;-68
2022/01/19 09:40:48;;;;;;;4.35;3.78;;;18.30;53.90;;;;;;5071012;28;20181;-64
2022/01/19 09:43:14;;;;;;;5.43;4.00;;;18.20;54.00;;;;;;5071287;28;20606;-64
2022/01/19 09:45:40;;;;;;;4.25;3.70;;;18.20;54.00;;;;;;5070956;28;20239;-64
2022/01/19 09:48:06;;;;;;;3.90;3.33;;;18.20;54.10;;;;;;5069981;28;20175;-64
2022/01/19 09:50:31;;;;;;;4.10;3.80;;;18.20;53.90;;;;;;5070717;28;20317;-63
2022/01/19 09:52:57;;;;;;;4.57;3.83;;;18.30;53.90;;;;;;5071013;28;20185;-62
2022/01/19 09:55:22;;;;;;;4.55;3.67;;;18.30;53.90;;;;;;5070220;28;20178;-62
2022/01/19 09:57:48;;;;;;;4.10;3.50;;;18.30;53.80;;;;;;5071011;28;20170;-63
2022/01/19 10:00:14;;;;;;;4.30;3.90;;;18.20;53.90;;;;;;5053201;28;20171;-66
2022/01/19 10:02:39;;;;;;;4.22;3.83;;;18.20;54.00;;;;;;5069782;28;20179;-64
2022/01/19 10:05:08;;;;;;;4.32;3.92;;;18.10;54.10;;;;;;5071094;28;20205;-65
2022/01/19 10:07:34;;;;;;;6.10;4.28;;;18.10;54.20;;;;;;5070398;28;20224;-62
2022/01/19 10:10:05;;;;;;;3.88;3.58;;;18.00;54.20;;;;;;5070175;28;20175;-63
2022/01/19 10:18:23;;;;;;;4.50;4.10;;;18.00;54.20;;;;;;5069874;28;20173;-63
2022/01/19 10:21:02;;;;;;;5.47;4.07;;;18.00;54.20;;;;;;5071117;28;20179;-63
2022/01/19 10:23:48;;;;;;;5.78;3.80;;;18.00;54.20;;;;;;5070076;28;20171;-66
2022/01/19 10:26:15;;;;;;;4.47;3.78;;;17.90;54.30;;;;;;5070857;28;20178;-66
2022/01/19 10:28:57;;;;;;;5.00;4.00;;;17.90;54.40;;;;;;5070535;28;20228;-68
2022/01/19 10:31:22;;;;;;;6.10;4.13;;;17.90;54.70;;;;;;5060353;28;20198;-64
2022/01/19 10:34:10;;;;;;;5.57;4.13;;;17.90;54.90;;;;;;5054117;28;20233;-64
2022/01/19 10:36:40;;;;;;;4.13;3.72;;;17.90;54.80;;;;;;5053946;28;20214;-65
2022/01/19 10:39:06;;;;;;;5.22;4.05;;;17.80;54.80;;;;;;5053662;28;20233;-65
2022/01/19 10:41:31;;;;;;;5.68;3.75;;;17.90;54.90;;;;;;5053709;28;20190;-63
2022/01/19 10:43:57;;;;;;;5.03;3.53;;;17.90;54.90;;;;;;5053997;28;20660;-65
2022/01/19 10:46:29;;;;;;;4.47;3.70;;;17.90;54.90;;;;;;5053294;28;20198;-63
2022/01/19 10:48:59;;;;;;;5.00;3.47;;;17.80;54.90;;;;;;5054457;28;20175;-63
2022/01/19 10:51:29;;;;;;;4.32;3.53;;;17.80;54.90;;;;;;5053217;28;20218;-62
2022/01/19 10:54:13;;;;;;;5.00;4.20;;;17.80;54.90;;;;;;5054046;28;20171;-63
2022/01/19 10:56:40;;;;;;;4.68;3.97;;;17.80;54.90;;;;;;5053960;28;20276;-63
2022/01/19 10:59:12;;;;;;;5.18;4.00;;;17.80;55.00;;;;;;5053643;28;20176;-63
2022/01/19 11:01:41;;;;;;;4.60;3.63;;;17.80;54.90;;;;;;5053967;28;20175;-63
2022/01/19 11:04:35;;;;;;;4.97;3.97;;;17.80;54.90;;;;;;5054538;28;20179;-64
2022/01/19 11:07:02;;;;;;;4.47;4.07;;;17.90;54.80;;;;;;5053757;28;20186;-62
2022/01/19 11:09:29;;;;;;;6.00;3.95;;;18.00;54.70;;;;;;5053989;28;20637;-62
2022/01/19 11:11:59;;;;;;;5.25;4.53;;;18.10;54.50;;;;;;5054445;28;20186;-64
2022/01/19 11:14:28;;;;;;;3.90;3.60;;;18.10;54.30;;;;;;5052925;28;20710;-64
2022/01/19 11:16:53;;;;;;;5.60;3.85;;;18.20;54.10;;;;;;5053870;28;20298;-63
2022/01/19 11:19:19;;;;;;;4.28;3.50;;;18.40;54.00;;;;;;5053151;28;20254;-62
2022/01/19 11:22:12;;;;;;;3.72;3.42;;;18.40;53.80;;;;;;5054156;28;20210;-62
2022/01/19 11:25:11;;;;;;;4.93;3.90;;;18.50;53.60;;;;;;5053410;28;20555;-62
2022/01/19 11:27:38;;;;;;;3.83;3.40;;;18.60;53.30;;;;;;5052932;28;20275;-63
2022/01/19 11:30:09;;;;;;;4.05;3.45;;;18.70;53.40;;;;;;5053650;28;20634;-63
2022/01/19 11:32:34;;;;;;;4.10;3.70;;;18.70;53.10;;;;;;5072745;28;20178;-64
2022/01/19 11:35:02;;;;;;;3.65;3.35;;;18.80;53.10;;;;;;5072930;28;20541;-63
2022/01/19 11:37:42;;;;;;;4.35;3.67;;;18.80;52.90;;;;;;5071980;28;20637;-64
2022/01/19 11:40:14;;;;;;;3.80;3.50;;;18.80;52.80;;;;;;5073670;28;20174;-64
2022/01/19 11:42:43;;;;;;;3.90;3.60;;;18.90;52.80;;;;;;5072388;28;20174;-63
2022/01/19 11:45:30;;;;;;;4.18;3.33;;;18.90;52.80;;;;;;5073270;28;20477;-65
2022/01/19 11:48:15;;;;;;;3.88;3.53;;;18.90;52.70;;;;;;5072510;28;20178;-65
2022/01/19 11:50:44;;;;;;;3.92;3.42;;;18.90;52.70;;;;;;5072770;28;20651;-62
2022/01/19 11:53:11;;;;;;;3.85;3.47;;;19.00;52.70;;;;;;5073229;28;20174;-64
2022/01/19 11:55:37;;;;;;;3.00;2.80;;;18.90;52.70;;;;;;5072213;28;20178;-66
2022/01/19 11:58:20;;;;;;;3.72;3.40;;;18.90;52.60;;;;;;5073036;28;20620;-66
2022/01/19 12:00:48;;;;;;;3.45;3.00;;;18.90;52.60;;;;;;5073012;28;20210;-60
2022/01/19 12:03:21;;;;;;;3.67;3.38;;;18.80;52.70;;;;;;5072421;28;20178;-63
2022/01/19 12:05:47;;;;;;;4.22;3.42;;;18.80;53.00;;;;;;5072971;28;20253;-63
2022/01/19 12:08:23;;;;;;;3.78;3.47;;;18.70;53.00;;;;;;5072786;28;20258;-63
2022/01/19 12:10:50;;;;;;;4.53;3.50;;;18.70;53.30;;;;;;5072377;28;20186;-62
2022/01/19 12:13:29;;;;;;;3.70;3.30;;;18.60;53.30;;;;;;5072871;28;20236;-63
2022/01/19 12:16:13;;;;;;;3.60;3.30;;;18.60;53.40;;;;;;5071785;28;20202;-62
2022/01/19 12:18:50;;;;;;;3.75;3.38;;;18.60;53.50;;;;;;5072323;28;20170;-62
2022/01/19 12:21:21;;;;;;;3.33;2.92;;;18.60;53.50;;;;;;5072688;28;20279;-63
2022/01/19 12:23:47;;;;;;;3.50;3.20;;;18.70;53.50;;;;;;5071789;28;20167;-62
2022/01/19 12:26:13;;;;;;;3.60;3.30;;;18.60;53.50;;;;;;5072321;28;20641;-60
2022/01/19 12:28:43;;;;;;;4.68;3.30;;;18.70;53.50;;;;;;5072216;28;20193;-61
2022/01/19 12:31:23;;;;;;;5.10;3.55;;;18.60;53.60;;;;;;5064205;28;20187;-63
2022/01/19 12:34:09;;;;;;;4.50;3.35;;;18.70;53.60;;;;;;5052604;28;20190;-64
2022/01/19 12:36:52;;;;;;;3.63;3.33;;;18.70;53.50;;;;;;5051960;28;20626;-64
2022/01/19 12:39:29;;;;;;;4.45;3.28;;;18.70;53.40;;;;;;5052451;28;20182;-63
2022/01/19 12:42:39;;;;;;;3.33;2.97;;;18.70;53.40;;;;;;5052269;28;20171;-64
2022/01/19 12:45:34;;;;;;;3.58;3.28;;;18.70;53.40;;;;;;5051565;28;20232;-65
2022/01/19 12:48:05;;;;;;;5.80;3.20;;;18.70;53.40;;;;;;5042563;28;20665;-65
2022/01/19 12:50:35;;;;;;;3.33;3.03;;;18.80;53.40;;;;;;5051908;28;20223;-63
2022/01/19 12:53:12;;;;;;;3.30;3.00;;;18.70;53.30;;;;;;5051635;28;20187;-65
2022/01/19 12:55:39;;;;;;;2.90;2.70;;;18.70;53.30;;;;;;5051059;28;20175;-63
2022/01/19 12:58:22;;;;;;;3.67;3.38;;;18.70;53.30;;;;;;5051420;28;20183;-64
2022/01/19 13:00:49;;;;;;;3.53;3.22;;;18.70;53.20;;;;;;5052433;28;20249;-64
2022/01/19 13:03:26;;;;;;;4.35;3.15;;;18.60;53.30;;;;;;5052347;28;20183;-63
2022/01/19 13:05:58;;;;;;;4.53;3.35;;;18.60;53.30;;;;;;5051380;28;20708;-63
2022/01/19 13:08:45;;;;;;;3.88;3.15;;;18.60;53.40;;;;;;5051738;28;20182;-62
2022/01/19 13:11:19;;;;;;;3.42;3.15;;;18.60;53.40;;;;;;5052205;28;20194;-62
2022/01/19 13:13:46;;;;;;;3.58;3.28;;;18.60;53.40;;;;;;5051465;28;20244;-62
2022/01/19 13:16:11;;;;;;;3.20;2.90;;;18.60;53.40;;;;;;5052050;28;20214;-62
2022/01/19 13:18:44;;;;;;;3.72;3.10;;;18.60;53.40;;;;;;5051681;28;20167;-62
2022/01/19 13:21:15;;;;;;;3.13;2.88;;;18.60;53.40;;;;;;5051216;28;20256;-63
2022/01/19 13:24:14;;;;;;;3.58;2.80;;;18.60;53.40;;;;;;5051569;28;20624;-62
2022/01/19 13:26:44;;;;;;;3.38;3.08;;;18.60;53.30;;;;;;5050772;28;20762;-62
2022/01/19 13:29:37;;;;;;;3.28;2.97;;;18.60;53.30;;;;;;5051852;28;20183;-64
2022/01/19 13:32:04;;;;;;;3.58;3.17;;;18.50;53.20;;;;;;5067314;28;20228;-64
2022/01/19 13:34:32;;;;;;;4.22;3.42;;;18.50;53.20;;;;;;5070935;28;20174;-64
2022/01/19 13:37:01;;;;;;;3.45;3.15;;;18.50;53.30;;;;;;5071882;28;20275;-65
2022/01/19 13:39:28;;;;;;;3.78;3.40;;;18.50;53.30;;;;;;5071240;28;20625;-63
2022/01/19 13:41:57;;;;;;;3.53;3.17;;;18.40;53.40;;;;;;5070834;28;20706;-64
2022/01/19 13:44:32;;;;;;;3.53;3.20;;;18.40;53.40;;;;;;5071124;28;20243;-64
2022/01/19 13:47:11;;;;;;;3.50;3.20;;;18.40;53.40;;;;;;5071505;28;20182;-64
2022/01/19 13:49:37;;;;;;;3.60;3.22;;;18.50;53.40;;;;;;5071070;28;20700;-63
2022/01/19 13:52:04;;;;;;;3.55;3.17;;;18.50;53.40;;;;;;5070504;28;20190;-64
2022/01/19 13:54:29;;;;;;;3.55;3.13;;;18.50;53.30;;;;;;5070753;28;20633;-63
2022/01/19 13:56:57;;;;;;;4.10;2.90;;;18.50;53.30;;;;;;5071770;28;20362;-65
2022/01/19 13:59:22;;;;;;;3.00;2.70;;;18.40;53.30;;;;;;5071439;28;20308;-63
2022/01/19 14:02:00;;;;;;;3.90;3.25;;;18.40;53.30;;;;;;5069923;28;20265;-64
2022/01/19 14:04:27;;;;;;;4.13;3.72;;;18.40;53.30;;;;;;5071530;28;20262;-64
2022/01/19 14:07:00;;;;;;;3.60;3.30;;;18.30;53.30;;;;;;5072221;28;20174;-63
2022/01/19 14:09:31;;;;;;;4.53;3.42;;;18.30;53.40;;;;;;5073503;28;20588;-62
2022/01/19 14:12:06;;;;;;;3.97;3.58;;;18.30;53.40;;;;;;5075685;28;20273;-62